Time;durP1;ratioP1;P1;durP2;ratioP2;P2;SDS_P1;SDS_P2;PMS_P1;PMS_P2;Temp;Humidity;BMP_temperature;BMP_pressure;BME280_temperature;BME280_humidity;BME280_pressure;Samples;Min_cycle;Max_cycle;Signal;HPM_P1;HPM_P2
2023/01/26 00:01:28;;;;;;;28.67;12.60;;;;;;;4.86;66.76;101362.13;5033700;28;20236;-63
2023/01/26 00:03:56;;;;;;;26.57;12.87;;;;;;;4.85;66.75;101360.44;5032470;28;20203;-62
2023/01/26 00:06:37;;;;;;;26.23;12.47;;;;;;;4.88;66.55;101362.91;5032590;28;20211;-63
2023/01/26 00:09:05;;;;;;;29.97;14.07;;;;;;;4.86;66.50;101359.50;5032369;28;20214;-63
2023/01/26 00:11:34;;;;;;;26.37;12.77;;;;;;;4.87;66.82;101355.94;5032794;28;20218;-63
2023/01/26 00:14:02;;;;;;;24.30;12.60;;;;;;;4.86;66.68;101354.25;5035581;28;20215;-62
2023/01/26 00:16:30;;;;;;;23.97;11.23;;;;;;;4.86;66.68;101349.00;5031273;28;20263;-62
2023/01/26 00:18:58;;;;;;;27.77;11.60;;;;;;;4.85;66.54;101347.28;5031520;28;20215;-63
2023/01/26 00:21:25;;;;;;;24.87;11.50;;;;;;;4.84;66.59;101340.34;5035129;28;20215;-63
2023/01/26 00:23:53;;;;;;;24.07;11.40;;;;;;;4.85;66.50;101344.66;5031938;28;20216;-62
2023/01/26 00:26:24;;;;;;;27.93;11.17;;;;;;;4.85;66.27;101344.66;5032607;28;20676;-63
2023/01/26 00:28:53;;;;;;;23.93;11.83;;;;;;;4.85;66.27;101342.03;5032445;28;20226;-63
2023/01/26 00:31:22;;;;;;;24.87;11.00;;;;;;;4.81;66.31;101340.53;5031583;28;20736;-63
2023/01/26 00:33:50;;;;;;;21.03;10.43;;;;;;;4.82;66.20;101336.97;5033566;28;20631;-63
2023/01/26 00:36:18;;;;;;;23.10;10.67;;;;;;;4.80;65.91;101324.88;5030626;28;20234;-63
2023/01/26 00:38:46;;;;;;;23.33;10.97;;;;;;;4.80;66.05;101328.34;5032180;28;20877;-61
2023/01/26 00:43:57;;;;;;;22.07;10.93;;;;;;;4.81;66.26;101330.03;5033572;28;20216;-62
2023/01/26 00:46:25;;;;;;;22.70;11.07;;;;;;;4.80;66.17;101316.97;5032749;28;20208;-62
2023/01/26 00:48:53;;;;;;;21.53;10.07;;;;;;;4.78;65.89;101319.69;5035818;28;20224;-62
2023/01/26 00:51:21;;;;;;;24.37;11.60;;;;;;;4.79;66.04;101320.53;5032745;28;20211;-61
2023/01/26 00:53:49;;;;;;;26.63;12.70;;;;;;;4.82;65.81;101315.97;5035630;28;20310;-62
2023/01/26 00:56:17;;;;;;;30.33;13.97;;;;;;;4.80;65.94;101312.56;5035843;28;20223;-62
2023/01/26 00:58:44;;;;;;;28.03;13.23;;;;;;;4.80;65.89;101312.56;5033246;28;20216;-62
2023/01/26 01:01:14;;;;;;;28.37;13.40;;;;;;;4.81;65.96;101321.31;5032566;28;20231;-62
2023/01/26 01:03:41;;;;;;;32.27;14.73;;;;;;;4.83;65.93;101322.91;5031521;28;20207;-61
2023/01/26 01:06:09;;;;;;;33.23;14.10;;;;;;;4.74;66.10;101323.44;5033312;28;20209;-62
2023/01/26 01:08:37;;;;;;;33.90;14.30;;;;;;;4.71;66.12;101315.75;5032335;28;20215;-62
2023/01/26 01:11:06;;;;;;;33.90;14.57;;;;;;;4.74;66.10;101318.19;5032638;28;20242;-61
2023/01/26 01:13:35;;;;;;;27.13;12.27;;;;;;;4.73;66.33;101324.38;5031802;28;20218;-61
2023/01/26 01:16:05;;;;;;;29.47;13.47;;;;;;;4.76;66.24;101316.31;5032364;28;20206;-61
2023/01/26 01:18:35;;;;;;;27.80;12.77;;;;;;;4.80;65.96;101315.19;5031326;28;20267;-61
2023/01/26 01:21:06;;;;;;;30.60;13.90;;;;;;;4.82;65.86;101318.59;5032495;28;20237;-62
2023/01/26 01:23:34;;;;;;;28.20;14.00;;;;;;;4.83;65.98;101317.66;5032688;28;20294;-62
2023/01/26 01:26:02;;;;;;;28.80;13.63;;;;;;;4.83;66.04;101317.66;5036830;28;20211;-63
2023/01/26 01:28:30;;;;;;;24.00;10.70;;;;;;;4.86;65.55;101321.84;5033229;28;20203;-63
2023/01/26 01:30:58;;;;;;;24.33;12.43;;;;;;;4.85;65.65;101323.63;5034593;28;20743;-63
2023/01/26 01:33:26;;;;;;;28.60;13.27;;;;;;;4.80;65.47;101323.06;5033911;28;20219;-62
2023/01/26 01:35:59;;;;;;;28.10;13.00;;;;;;;4.77;65.58;101312.75;5036626;28;20207;-63
2023/01/26 01:38:28;;;;;;;23.20;11.53;;;;;;;4.73;65.98;101316.50;5032982;28;20214;-63
2023/01/26 01:40:56;;;;;;;24.07;11.13;;;;;;;4.75;65.79;101317.22;5037620;28;20298;-63
2023/01/26 01:43:25;;;;;;;24.27;11.07;;;;;;;4.74;65.93;101319.97;5033766;28;20214;-63
2023/01/26 01:45:53;;;;;;;23.17;10.67;;;;;;;4.74;66.00;101312.94;5035321;28;20349;-63
2023/01/26 01:48:27;;;;;;;20.60;9.93;;;;;;;4.73;66.04;101306.00;5031874;28;20214;-62
2023/01/26 01:50:59;;;;;;;24.27;10.17;;;;;;;4.73;65.84;101306.00;5036059;28;20844;-62
2023/01/26 01:53:31;;;;;;;23.03;11.77;;;;;;;4.73;65.93;101307.78;5033100;28;20945;-62
2023/01/26 01:56:02;;;;;;;21.10;10.17;;;;;;;4.73;66.24;101313.88;5035934;28;20207;-63
2023/01/26 01:58:34;;;;;;;20.90;9.73;;;;;;;4.70;66.32;101316.66;5033181;28;20223;-62
2023/01/26 02:01:02;;;;;;;20.53;10.03;;;;;;;4.71;66.26;101315.75;5035414;28;20679;-62
2023/01/26 02:03:30;;;;;;;18.40;8.33;;;;;;;4.72;66.18;101306.91;5033205;28;20315;-62
2023/01/26 02:06:03;;;;;;;19.03;8.60;;;;;;;4.77;65.46;101311.91;5029371;28;20221;-62
2023/01/26 02:08:34;;;;;;;15.87;7.93;;;;;;;4.76;64.72;101311.03;5030446;28;20894;-62
2023/01/26 02:11:06;;;;;;;17.53;7.03;;;;;;;4.73;64.64;101302.50;5032214;28;20214;-61
2023/01/26 02:13:35;;;;;;;15.47;7.50;;;;;;;4.71;64.70;101307.84;5032386;28;20262;-61
2023/01/26 02:16:03;;;;;;;19.70;8.10;;;;;;;4.66;64.86;101304.63;5034577;28;20207;-62
2023/01/26 02:18:31;;;;;;;19.67;8.30;;;;;;;4.67;65.05;101306.31;5033612;28;20444;-65
2023/01/26 02:21:02;;;;;;;15.40;7.60;;;;;;;4.69;65.42;101301.00;5031563;28;20220;-62
2023/01/26 02:23:42;;;;;;;18.67;8.87;;;;;;;4.69;65.89;101299.22;5032094;28;20230;-63
2023/01/26 02:26:14;;;;;;;15.70;8.07;;;;;;;4.67;66.26;101290.56;5032212;28;20222;-62
2023/01/26 02:28:43;;;;;;;16.53;7.17;;;;;;;4.67;65.88;101290.56;5032931;28;20204;-62
2023/01/26 02:31:12;;;;;;;16.13;7.30;;;;;;;4.66;65.81;101304.63;5034138;28;20247;-62
2023/01/26 02:33:41;;;;;;;15.10;8.03;;;;;;;4.64;65.78;101290.78;5030377;28;20577;-62
2023/01/26 02:36:16;;;;;;;16.83;7.80;;;;;;;4.65;66.14;101287.22;5030168;28;20327;-62
2023/01/26 02:38:51;;;;;;;15.60;7.13;;;;;;;4.64;65.70;101288.13;5031462;28;20724;-63
2023/01/26 02:44:04;;;;;;;15.67;6.53;;;;;;;4.66;66.08;101286.25;5033539;28;20299;-62
2023/01/26 02:46:31;;;;;;;18.23;7.40;;;;;;;4.65;66.13;101284.59;5037396;28;20698;-63
2023/01/26 02:51:45;;;;;;;19.23;8.70;;;;;;;4.63;66.98;101282.97;5033602;28;20220;-62
2023/01/26 02:55:21;;;;;;;14.17;7.00;;;;;;;4.63;67.23;101278.56;5035151;28;20993;-63
2023/01/26 02:57:01;;;;;;;21.63;8.70;;;;;;;4.63;67.36;101277.72;5035987;28;20215;-63
2023/01/26 02:59:29;;;;;;;21.87;8.93;;;;;;;4.63;67.46;101277.72;5033333;28;20246;-63
2023/01/26 03:01:57;;;;;;;19.73;7.97;;;;;;;4.56;67.68;101279.88;5035652;28;20237;-63
2023/01/26 03:04:25;;;;;;;20.40;8.40;;;;;;;4.57;67.98;101275.47;5032391;28;20659;-63
2023/01/26 03:06:53;;;;;;;24.03;8.70;;;;;;;4.58;67.99;101262.22;5033745;28;20233;-63
2023/01/26 03:09:21;;;;;;;17.40;8.73;;;;;;;4.58;68.04;101258.72;5037258;28;20226;-63
2023/01/26 03:11:49;;;;;;;19.23;9.50;;;;;;;4.61;68.07;101264.66;5037104;28;20607;-63
2023/01/26 03:14:18;;;;;;;20.10;9.07;;;;;;;4.62;67.76;101255.84;5033233;28;20219;-63
2023/01/26 03:16:46;;;;;;;17.53;9.00;;;;;;;4.63;67.86;101260.19;5037332;28;20216;-62
2023/01/26 03:27:43;;;;;;;20.17;8.53;;;;;;;4.52;68.77;101247.66;5034702;28;20301;-63
2023/01/26 03:30:14;;;;;;;22.20;8.73;;;;;;;4.51;68.72;101237.25;5033203;28;20212;-63
2023/01/26 03:32:41;;;;;;;23.20;9.03;;;;;;;4.47;68.74;101233.13;5033029;28;20212;-63
2023/01/26 03:35:13;;;;;;;17.00;8.33;;;;;;;4.43;68.88;101240.34;5036368;28;20231;-63
2023/01/26 03:37:42;;;;;;;20.13;8.47;;;;;;;4.45;69.36;101232.38;5033272;28;20221;-63
2023/01/26 03:56:46;;;;;;;17.80;8.43;;;;;;;4.44;70.12;101220.16;5037809;28;20213;-62
2023/01/26 03:59:14;;;;;;;16.77;8.23;;;;;;;4.50;69.91;101215.38;5033401;28;20224;-63
2023/01/26 04:10:04;;;;;;;21.50;8.43;;;;;;;4.58;69.39;101217.56;5033515;28;20732;-63
2023/01/26 04:12:32;;;;;;;19.83;7.80;;;;;;;4.61;69.42;101211.28;5032663;28;20214;-63
2023/01/26 04:23:18;;;;;;;15.90;7.13;;;;;;;4.60;69.24;101207.81;5031538;28;20234;-63
2023/01/26 04:25:46;;;;;;;14.03;6.40;;;;;;;4.59;69.11;101208.75;5034271;28;20295;-62
2023/01/26 04:28:14;;;;;;;18.17;6.97;;;;;;;4.61;69.21;101206.03;5033435;28;20664;-62
2023/01/26 04:30:42;;;;;;;15.23;6.47;;;;;;;4.60;69.14;101213.06;5032348;28;20330;-62
2023/01/26 04:33:11;;;;;;;14.57;6.20;;;;;;;4.65;68.80;101207.53;5033727;28;20210;-63
2023/01/26 04:35:39;;;;;;;12.57;5.90;;;;;;;4.66;68.71;101202.19;5034307;28;20211;-63
2023/01/26 04:38:07;;;;;;;12.10;6.23;;;;;;;4.68;68.65;101197.69;5033962;28;20220;-62
2023/01/26 04:40:34;;;;;;;15.00;6.07;;;;;;;4.65;68.80;101192.63;5033347;28;20218;-63
2023/01/26 04:43:03;;;;;;;11.53;5.60;;;;;;;4.65;68.76;101183.91;5032032;28;20215;-63
2023/01/26 04:45:30;;;;;;;13.60;6.33;;;;;;;4.63;68.39;101168.22;5033119;28;20219;-63
2023/01/26 04:48:00;;;;;;;13.37;5.30;;;;;;;4.62;68.20;101182.28;5031922;28;20239;-62
2023/01/26 04:50:29;;;;;;;10.93;5.37;;;;;;;4.61;68.42;101180.59;5033345;28;20324;-63
2023/01/26 04:52:57;;;;;;;10.33;5.23;;;;;;;4.58;68.07;101186.03;5034852;28;20331;-63
2023/01/26 04:55:25;;;;;;;12.17;5.70;;;;;;;4.53;68.13;101180.22;5033502;28;20229;-63
2023/01/26 04:57:52;;;;;;;11.83;5.40;;;;;;;4.53;68.18;101181.06;5031693;28;20213;-63
2023/01/26 05:00:21;;;;;;;11.30;5.07;;;;;;;4.55;68.52;101178.34;5032880;28;20662;-63
2023/01/26 05:02:48;;;;;;;9.60;4.90;;;;;;;4.56;68.38;101173.94;5031584;28;20211;-63
2023/01/26 05:05:16;;;;;;;10.63;5.50;;;;;;;4.56;68.36;101166.91;5038555;28;20223;-63
2023/01/26 05:07:49;;;;;;;9.10;4.73;;;;;;;4.56;68.22;101172.16;5032360;28;20208;-62
2023/01/26 05:10:17;;;;;;;10.27;4.80;;;;;;;4.56;68.23;101174.78;5034070;28;20235;-64
2023/01/26 05:12:45;;;;;;;9.87;4.83;;;;;;;4.57;68.33;101179.13;5030111;28;20221;-63
2023/01/26 05:15:13;;;;;;;8.77;4.23;;;;;;;4.57;68.17;101165.97;5033085;28;20222;-63
2023/01/26 05:17:41;;;;;;;9.70;4.83;;;;;;;4.59;68.12;101156.19;5031560;28;20214;-63
2023/01/26 05:20:10;;;;;;;11.23;5.63;;;;;;;4.59;68.23;101166.72;5033638;28;20231;-62
2023/01/26 05:22:38;;;;;;;9.17;4.73;;;;;;;4.59;68.40;101165.88;5035069;28;20254;-63
2023/01/26 05:25:08;;;;;;;12.83;5.13;;;;;;;4.57;68.25;101160.72;5035302;28;20210;-63
2023/01/26 05:27:36;;;;;;;9.77;5.47;;;;;;;4.56;68.37;101166.91;5032585;28;20556;-63
2023/01/26 05:30:05;;;;;;;10.17;4.93;;;;;;;4.55;68.77;101159.97;5035054;28;20296;-63
2023/01/26 05:32:33;;;;;;;8.37;4.93;;;;;;;4.56;68.63;101164.28;5032744;28;20211;-63
2023/01/26 05:35:00;;;;;;;12.97;4.87;;;;;;;4.56;68.53;101166.91;5035232;28;20214;-62
2023/01/26 05:37:28;;;;;;;9.23;4.73;;;;;;;4.56;68.25;101171.31;5034743;28;20219;-63
2023/01/26 05:39:56;;;;;;;8.97;4.93;;;;;;;4.55;67.79;101173.09;5034590;28;20224;-63
2023/01/26 05:42:26;;;;;;;10.23;5.47;;;;;;;4.51;68.07;101168.97;5034365;28;20295;-63
2023/01/26 05:44:54;;;;;;;10.60;5.07;;;;;;;4.51;68.12;101171.59;5031609;28;20297;-62
2023/01/26 05:47:22;;;;;;;10.03;5.20;;;;;;;4.50;68.02;101168.09;5032552;28;20243;-63
2023/01/26 05:49:50;;;;;;;8.90;5.00;;;;;;;4.49;67.83;101165.56;5032522;28;20208;-62
2023/01/26 05:52:20;;;;;;;10.93;4.60;;;;;;;4.50;67.92;101183.88;5032892;28;20231;-63
2023/01/26 05:54:48;;;;;;;10.53;4.17;;;;;;;4.49;67.74;101168.19;5031006;28;20228;-63
2023/01/26 05:57:16;;;;;;;9.70;5.03;;;;;;;4.52;67.50;101170.66;5033017;28;20579;-63
2023/01/26 05:59:45;;;;;;;9.90;4.87;;;;;;;4.53;67.56;101180.22;5031949;28;20236;-62
2023/01/26 06:02:13;;;;;;;9.10;4.40;;;;;;;4.50;67.84;101170.75;5031256;28;20802;-63
2023/01/26 06:04:41;;;;;;;10.77;5.33;;;;;;;4.47;68.15;101181.44;5033903;28;20204;-63
2023/01/26 06:07:09;;;;;;;11.83;6.07;;;;;;;4.46;68.45;101181.53;5035892;28;20218;-61
2023/01/26 06:09:37;;;;;;;9.77;4.87;;;;;;;4.47;68.57;101183.22;5032470;28;20211;-63
2023/01/26 06:12:05;;;;;;;9.30;4.80;;;;;;;4.45;68.64;101196.44;5031105;28;20212;-63
2023/01/26 06:14:33;;;;;;;10.23;5.27;;;;;;;4.47;68.03;101193.72;5034086;28;20218;-63
2023/01/26 06:17:02;;;;;;;10.13;4.57;;;;;;;4.45;67.81;101199.06;5034980;28;20212;-63
2023/01/26 06:19:30;;;;;;;7.73;4.30;;;;;;;4.46;67.55;101197.28;5037466;28;20231;-63
2023/01/26 06:21:58;;;;;;;9.43;4.63;;;;;;;4.42;67.67;101201.03;5037483;28;20219;-63
2023/01/26 06:24:25;;;;;;;7.93;4.63;;;;;;;4.41;67.78;101208.06;5036612;28;20273;-63
2023/01/26 06:26:53;;;;;;;9.50;5.00;;;;;;;4.40;67.78;101206.34;5034247;28;20301;-64
2023/01/26 06:29:21;;;;;;;11.87;5.20;;;;;;;4.39;68.09;101207.31;5035546;28;20215;-62
2023/01/26 06:31:49;;;;;;;7.80;4.10;;;;;;;4.40;67.96;101206.34;5038072;28;20728;-62
2023/01/26 06:34:18;;;;;;;9.77;5.30;;;;;;;4.40;67.49;101206.34;5035455;28;20253;-62
2023/01/26 06:36:46;;;;;;;7.97;4.57;;;;;;;4.39;67.61;101206.47;5037179;28;21115;-62
2023/01/26 06:39:15;;;;;;;9.17;4.40;;;;;;;4.36;67.75;101218.00;5037413;28;20221;-62
2023/01/26 06:41:44;;;;;;;8.40;4.37;;;;;;;4.37;67.94;101209.19;5036463;28;20215;-62
2023/01/26 06:44:12;;;;;;;7.20;3.77;;;;;;;4.40;67.49;101213.38;5035213;28;20217;-63
2023/01/26 06:46:40;;;;;;;7.50;4.40;;;;;;;4.40;67.02;101222.13;5037919;28;20951;-62
2023/01/26 06:49:09;;;;;;;5.63;3.80;;;;;;;4.42;66.62;101211.53;5039049;28;20306;-62
2023/01/26 06:51:59;;;;;;;6.97;4.27;;;;;;;4.46;66.78;101218.31;5036110;28;20720;-62
2023/01/26 06:54:27;;;;;;;6.73;3.60;;;;;;;4.46;66.24;101218.31;5037994;28;20231;-62
2023/01/26 06:56:55;;;;;;;7.20;4.40;;;;;;;4.46;66.01;101216.53;5037826;28;21022;-62
2023/01/26 06:59:23;;;;;;;8.27;3.63;;;;;;;4.45;65.71;101222.72;5039640;28;20587;-63
2023/01/26 07:01:51;;;;;;;9.53;4.27;;;;;;;4.44;65.87;101209.66;5039113;28;20247;-63
2023/01/26 07:04:19;;;;;;;6.83;4.23;;;;;;;4.43;65.95;101208.81;5037053;28;20207;-63
2023/01/26 07:06:46;;;;;;;9.00;4.53;;;;;;;4.47;65.96;101214.75;5038311;28;20271;-67
2023/01/26 07:09:16;;;;;;;8.47;4.10;;;;;;;4.49;65.72;101211.06;5033747;28;20301;-68
2023/01/26 07:11:44;;;;;;;7.17;4.00;;;;;;;4.52;65.46;101212.69;5040990;28;20210;-68
2023/01/26 07:14:12;;;;;;;7.13;3.70;;;;;;;4.50;64.45;101210.13;5037487;28;20219;-68
2023/01/26 07:16:40;;;;;;;4.97;2.70;;;;;;;4.52;64.25;101210.03;5036198;28;20212;-67
2023/01/26 07:19:07;;;;;;;6.27;3.20;;;;;;;4.51;64.12;101224.13;5036200;28;20621;-68
2023/01/26 07:21:37;;;;;;;5.33;3.17;;;;;;;4.50;63.80;101225.03;5032987;28;20357;-67
2023/01/26 07:24:06;;;;;;;7.13;3.30;;;;;;;4.51;64.13;101222.34;5037569;28;20296;-69
2023/01/26 07:26:36;;;;;;;6.00;3.23;;;;;;;4.53;64.23;101222.25;5040760;28;20264;-68
2023/01/26 07:29:03;;;;;;;7.00;3.57;;;;;;;4.53;64.29;101224.88;5036414;28;20219;-68
2023/01/26 07:31:31;;;;;;;5.67;3.03;;;;;;;4.48;64.58;101224.31;5040003;28;20282;-68
2023/01/26 07:33:59;;;;;;;5.90;3.10;;;;;;;4.43;64.23;101224.56;5040006;28;20667;-68
2023/01/26 07:36:26;;;;;;;5.33;3.17;;;;;;;4.43;64.04;101229.81;5036037;28;21090;-68
2023/01/26 07:38:54;;;;;;;6.30;3.40;;;;;;;4.45;63.76;101237.63;5037339;28;20219;-69
2023/01/26 07:41:22;;;;;;;6.17;3.27;;;;;;;4.45;63.80;101235.00;5034844;28;20240;-68
2023/01/26 07:43:51;;;;;;;5.83;3.27;;;;;;;4.47;63.89;101228.72;5037985;28;20303;-68
2023/01/26 07:46:19;;;;;;;7.10;3.07;;;;;;;4.49;63.56;101234.69;5033778;28;20240;-68
2023/01/26 07:48:47;;;;;;;9.63;4.00;;;;;;;4.46;63.37;101232.28;5034994;28;20215;-68
2023/01/26 07:51:15;;;;;;;5.83;3.60;;;;;;;4.41;63.75;101236.94;5037813;28;20244;-68
2023/01/26 07:53:44;;;;;;;5.73;3.27;;;;;;;4.44;63.58;101235.94;5034689;28;20266;-68
2023/01/26 07:56:14;;;;;;;6.53;3.27;;;;;;;4.47;63.00;101227.88;5037592;28;20307;-68
2023/01/26 07:58:42;;;;;;;5.87;3.03;;;;;;;4.50;62.41;101235.56;5034847;28;20215;-68
2023/01/26 08:01:14;;;;;;;7.07;3.93;;;;;;;4.50;62.11;101236.41;5037085;28;20608;-68
2023/01/26 08:03:44;;;;;;;5.00;2.70;;;;;;;4.50;61.79;101232.94;5034579;28;20212;-68
2023/01/26 08:06:12;;;;;;;5.83;2.70;;;;;;;4.51;61.15;101234.63;5035502;28;20947;-68
2023/01/26 08:08:45;;;;;;;5.73;3.03;;;;;;;4.53;61.04;101228.34;5034400;28;21055;-68
2023/01/26 08:11:12;;;;;;;6.10;3.10;;;;;;;4.55;60.93;101228.25;5035027;28;20210;-69
2023/01/26 08:13:40;;;;;;;6.00;2.77;;;;;;;4.56;60.24;101226.47;5034985;28;20246;-68
2023/01/26 08:16:11;;;;;;;6.37;3.50;;;;;;;4.51;60.39;101224.13;5039235;28;20210;-68
2023/01/26 08:18:42;;;;;;;6.50;3.03;;;;;;;4.53;60.22;101228.34;5036714;28;20211;-68
2023/01/26 08:21:10;;;;;;;7.17;3.60;;;;;;;4.57;60.26;101234.28;5034675;28;20235;-68
2023/01/26 08:23:38;;;;;;;6.70;3.63;;;;;;;4.57;60.63;101229.03;5035694;28;20208;-68
2023/01/26 08:26:08;;;;;;;6.53;3.20;;;;;;;4.62;60.71;101236.63;5036347;28;20211;-67
2023/01/26 08:28:36;;;;;;;6.77;3.67;;;;;;;4.59;60.65;101242.03;5035905;28;20215;-70
2023/01/26 08:31:05;;;;;;;7.40;4.00;;;;;;;4.61;60.43;101243.66;5036348;28;20347;-68
2023/01/26 08:33:33;;;;;;;7.07;3.63;;;;;;;4.59;60.23;101245.50;5036493;28;20301;-68
2023/01/26 08:36:04;;;;;;;6.53;3.70;;;;;;;4.60;60.14;101241.97;5036973;28;20332;-68
2023/01/26 08:38:32;;;;;;;6.40;4.07;;;;;;;4.65;60.24;101252.22;5033711;28;20216;-68
2023/01/26 08:41:01;;;;;;;8.80;4.43;;;;;;;4.59;60.82;101261.28;5033057;28;20235;-69
2023/01/26 08:43:29;;;;;;;8.33;3.90;;;;;;;4.61;60.46;101254.16;5034359;28;20218;-68
2023/01/26 08:45:57;;;;;;;13.47;4.17;;;;;;;4.63;60.56;101254.91;5035397;28;20310;-68
2023/01/26 08:48:25;;;;;;;8.93;3.90;;;;;;;4.65;60.67;101255.69;5037354;28;20217;-69
2023/01/26 08:50:53;;;;;;;8.73;4.10;;;;;;;4.65;60.76;101249.56;5035689;28;20689;-69
2023/01/26 08:53:23;;;;;;;8.27;4.20;;;;;;;4.66;60.77;101244.22;5034042;28;20302;-68
2023/01/26 08:55:52;;;;;;;7.10;4.00;;;;;;;4.68;60.10;101246.75;5034190;28;20216;-68
2023/01/26 08:58:20;;;;;;;6.57;3.90;;;;;;;4.73;60.13;101253.44;5037640;28;20221;-68
2023/01/26 09:00:48;;;;;;;7.20;3.53;;;;;;;4.72;60.03;101246.50;5035788;28;20691;-68
2023/01/26 09:03:16;;;;;;;7.93;3.90;;;;;;;4.75;60.00;101258.59;5035839;28;20747;-69
2023/01/26 09:05:43;;;;;;;13.40;6.13;;;;;;;4.74;59.50;101254.28;5035631;28;20223;-67
2023/01/26 09:08:11;;;;;;;8.53;4.50;;;;;;;4.76;59.51;101260.28;5033187;28;20258;-69
2023/01/26 09:10:43;;;;;;;8.63;4.67;;;;;;;4.76;59.66;101269.00;5032982;28;20623;-67
2023/01/26 09:13:11;;;;;;;9.10;4.97;;;;;;;4.76;59.37;101269.00;5037196;28;20217;-68
2023/01/26 09:15:39;;;;;;;8.37;4.53;;;;;;;4.77;59.43;101269.84;5035856;28;20611;-68
2023/01/26 09:18:07;;;;;;;7.90;4.47;;;;;;;4.76;59.21;101263.75;5037475;28;20595;-68
2023/01/26 09:20:35;;;;;;;8.13;4.77;;;;;;;4.75;59.62;101267.31;5035099;28;20211;-67
2023/01/26 09:23:02;;;;;;;12.90;5.50;;;;;;;4.71;60.05;101263.19;5033342;28;20215;-66
2023/01/26 09:25:31;;;;;;;9.83;5.00;;;;;;;4.75;60.01;101258.59;5036855;28;20225;-67
2023/01/26 09:28:04;;;;;;;10.37;5.17;;;;;;;4.76;59.98;101261.13;5033274;28;20214;-68
2023/01/26 09:30:33;;;;;;;11.30;5.67;;;;;;;4.79;59.91;101258.31;5037829;28;20241;-68
2023/01/26 09:33:03;;;;;;;10.17;5.40;;;;;;;4.85;59.76;101264.97;5038246;28;20294;-67
2023/01/26 09:35:30;;;;;;;10.07;5.50;;;;;;;4.85;59.33;101263.19;5036393;28;20226;-68
2023/01/26 09:37:58;;;;;;;10.73;5.73;;;;;;;4.84;59.42;101261.50;5040119;28;20278;-67
2023/01/26 09:40:36;;;;;;;10.60;6.00;;;;;;;4.84;59.70;101260.66;5038326;28;20212;-68
2023/01/26 09:43:21;;;;;;;10.00;5.60;;;;;;;4.80;59.79;101260.00;5036738;28;20230;-68
2023/01/26 09:45:58;;;;;;;10.83;6.00;;;;;;;4.77;59.76;101259.34;5034598;28;20221;-68
2023/01/26 09:48:35;;;;;;;13.87;5.83;;;;;;;4.76;59.19;101261.13;5037815;28;20216;-67
2023/01/26 09:51:07;;;;;;;13.50;5.60;;;;;;;4.75;59.04;101263.88;5040495;28;20222;-68
2023/01/26 09:53:45;;;;;;;13.30;7.17;;;;;;;4.75;59.23;101255.97;5040613;28;20215;-67
2023/01/26 09:56:17;;;;;;;10.40;5.63;;;;;;;4.74;59.56;101260.38;5039901;28;20207;-68
2023/01/26 09:58:53;;;;;;;11.03;6.17;;;;;;;4.75;59.75;101261.25;5037158;28;20203;-68
2023/01/26 10:01:26;;;;;;;12.37;6.17;;;;;;;4.76;60.00;101258.50;5040157;28;20230;-67
2023/01/26 10:04:04;;;;;;;12.73;6.03;;;;;;;4.77;59.71;101254.94;5038152;28;20247;-67
2023/01/26 10:06:33;;;;;;;11.40;6.30;;;;;;;4.79;59.65;101252.22;5039492;28;20677;-68
2023/01/26 10:09:08;;;;;;;12.17;6.50;;;;;;;4.81;59.86;101256.44;5037382;28;20209;-68
2023/01/26 10:11:40;;;;;;;12.43;6.77;;;;;;;4.83;59.54;101248.47;5036598;28;20698;-68
2023/01/26 10:14:14;;;;;;;13.37;6.70;;;;;;;4.75;59.37;101240.22;5040449;28;20218;-67
2023/01/26 10:16:45;;;;;;;15.33;6.43;;;;;;;4.75;59.28;101248.91;5036258;28;20214;-68
2023/01/26 10:19:19;;;;;;;13.77;6.80;;;;;;;4.76;58.97;101247.97;5039255;28;20220;-69
2023/01/26 10:21:51;;;;;;;12.60;7.33;;;;;;;4.76;58.89;101252.38;5036097;28;20220;-68
2023/01/26 10:24:22;;;;;;;13.73;7.00;;;;;;;4.79;58.93;101250.44;5037174;28;20212;-71
2023/01/26 10:26:56;;;;;;;17.20;7.10;;;;;;;4.75;58.55;101243.66;5038829;28;20590;-71
2023/01/26 10:29:25;;;;;;;11.07;6.10;;;;;;;4.75;58.96;101245.47;5036915;28;20222;-70
2023/01/26 10:31:53;;;;;;;13.30;7.30;;;;;;;4.78;58.85;101245.25;5039689;28;20247;-69
2023/01/26 10:34:24;;;;;;;11.77;6.23;;;;;;;4.83;58.84;101243.22;5042024;28;20204;-71
2023/01/26 10:37:01;;;;;;;11.63;6.60;;;;;;;4.84;58.91;101243.09;5041390;28;20210;-71
2023/01/26 10:39:29;;;;;;;12.17;5.93;;;;;;;4.85;58.53;101234.28;5041379;28;20305;-70
2023/01/26 10:41:59;;;;;;;12.20;6.70;;;;;;;4.88;58.39;101239.38;5038990;28;20231;-71
2023/01/26 10:44:33;;;;;;;11.80;5.97;;;;;;;4.92;57.90;101235.59;5038575;28;20218;-71
2023/01/26 10:47:04;;;;;;;14.47;6.57;;;;;;;4.97;58.03;101237.13;5039965;28;20314;-72
2023/01/26 10:49:34;;;;;;;10.27;5.97;;;;;;;5.01;58.01;101228.97;5039267;28;20624;-71
2023/01/26 10:52:07;;;;;;;10.47;5.40;;;;;;;5.01;57.02;101218.44;5040698;28;20247;-69
2023/01/26 10:54:36;;;;;;;14.70;7.17;;;;;;;4.98;57.40;101220.41;5039115;28;20222;-70
2023/01/26 10:57:14;;;;;;;11.47;6.13;;;;;;;4.95;57.45;101231.09;5038984;28;20238;-70
2023/01/26 10:59:50;;;;;;;13.90;6.13;;;;;;;4.93;57.74;101226.78;5036234;28;20207;-70
2023/01/26 11:02:27;;;;;;;11.40;6.17;;;;;;;4.96;58.04;101227.53;5037737;28;20244;-69
2023/01/26 11:05:15;;;;;;;12.40;7.17;;;;;;;4.97;58.15;101213.47;5039774;28;20224;-70
2023/01/26 11:07:45;;;;;;;12.23;6.37;;;;;;;4.96;58.39;101217.88;5040553;28;20859;-69
2023/01/26 11:10:25;;;;;;;14.00;6.83;;;;;;;4.95;57.88;101215.31;5040435;28;20219;-69
2023/01/26 11:13:08;;;;;;;14.77;7.10;;;;;;;4.91;58.02;101209.44;5041574;28;20215;-69
2023/01/26 11:15:40;;;;;;;12.43;6.63;;;;;;;4.91;57.82;101199.78;5040540;28;20294;-69
2023/01/26 11:18:18;;;;;;;13.03;6.07;;;;;;;4.90;58.22;101200.69;5038298;28;20237;-68
2023/01/26 11:20:50;;;;;;;11.77;6.43;;;;;;;4.85;58.42;101197.50;5037204;28;20261;-68
2023/01/26 11:23:29;;;;;;;10.77;6.17;;;;;;;4.84;58.31;101208.09;5038582;28;20301;-70
2023/01/26 11:26:13;;;;;;;14.37;6.33;;;;;;;4.86;58.45;101201.81;5039035;28;20211;-70
2023/01/26 11:28:54;;;;;;;14.83;6.87;;;;;;;4.89;58.04;101196.38;5038207;28;20216;-69
2023/01/26 11:31:32;;;;;;;13.93;6.63;;;;;;;4.89;58.27;101192.91;5043593;28;20230;-69
2023/01/26 11:34:16;;;;;;;13.27;6.80;;;;;;;4.89;57.88;101191.13;5043288;28;20279;-71
2023/01/26 11:36:52;;;;;;;14.50;7.63;;;;;;;4.89;57.71;101191.13;5040768;28;20239;-69
2023/01/26 11:39:28;;;;;;;16.27;7.40;;;;;;;4.90;58.04;101182.31;5039322;28;20290;-71
2023/01/26 11:42:10;;;;;;;18.37;7.10;;;;;;;4.93;57.70;101184.72;5036963;28;20290;-71
2023/01/26 11:45:00;;;;;;;18.27;7.70;;;;;;;4.90;57.32;101179.69;5035552;28;20238;-70
2023/01/26 11:47:51;;;;;;;12.37;7.07;;;;;;;4.83;57.25;101174.91;5041317;28;20598;-72
2023/01/26 11:50:30;;;;;;;15.53;6.63;;;;;;;4.85;57.44;101173.00;5039185;28;20215;-72
2023/01/26 11:53:18;;;;;;;17.37;7.93;;;;;;;4.87;57.62;101165.88;5047318;28;20425;-73
2023/01/26 11:56:15;;;;;;;15.47;8.10;;;;;;;4.86;57.74;101165.03;5046203;28;20208;-72
2023/01/26 11:58:49;;;;;;;14.33;7.20;;;;;;;4.89;58.11;101164.00;5033798;28;20215;-72
2023/01/26 12:01:27;;;;;;;15.33;6.67;;;;;;;4.91;57.34;101160.34;5044397;28;20254;-72
2023/01/26 12:03:57;;;;;;;17.60;7.03;;;;;;;4.84;57.03;101160.78;5040093;28;20230;-72
2023/01/26 12:06:32;;;;;;;13.13;6.83;;;;;;;4.77;57.37;101162.97;5039498;28;20220;-70
2023/01/26 12:09:02;;;;;;;19.23;7.80;;;;;;;4.80;57.59;101162.78;5044268;28;20225;-71
2023/01/26 12:11:35;;;;;;;17.97;8.47;;;;;;;4.79;57.92;101163.72;5039309;28;20673;-71
2023/01/26 12:14:15;;;;;;;20.10;8.13;;;;;;;4.79;57.74;101161.09;5037326;28;20608;-67
2023/01/26 12:16:54;;;;;;;20.33;9.27;;;;;;;4.76;57.55;101163.06;5037567;28;20214;-68
2023/01/26 12:19:44;;;;;;;18.43;9.17;;;;;;;4.79;57.98;101155.00;5036300;28;20696;-68
2023/01/26 12:22:19;;;;;;;16.30;7.77;;;;;;;4.78;58.04;101151.50;5040647;28;20215;-71
2023/01/26 12:24:53;;;;;;;14.60;7.97;;;;;;;4.77;57.74;101143.72;5046413;28;20525;-70
2023/01/26 12:27:46;;;;;;;16.80;8.17;;;;;;;4.78;57.72;101141.00;5040803;28;20211;-71
2023/01/26 12:30:25;;;;;;;18.20;8.57;;;;;;;4.70;57.97;101135.38;5037911;28;20320;-72
2023/01/26 12:32:54;;;;;;;17.30;8.43;;;;;;;4.61;57.55;101137.72;5038450;28;20918;-72